createdAt,value
2022-12-20T00:01:37.282Z,15.70
2022-12-20T00:04:06.864Z,15.69
2022-12-20T00:06:35.475Z,15.70
2022-12-20T00:09:03.879Z,15.73
2022-12-20T00:11:31.776Z,15.74
2022-12-20T00:13:59.691Z,15.76
2022-12-20T00:16:28.487Z,15.73
2022-12-20T00:18:57.819Z,15.78
2022-12-20T00:21:27.202Z,15.79
2022-12-20T00:23:55.521Z,15.80
2022-12-20T00:26:25.692Z,15.78
2022-12-20T00:28:53.865Z,15.81
2022-12-20T00:31:22.938Z,15.82
2022-12-20T00:33:51.683Z,15.81
2022-12-20T00:36:19.750Z,15.80
2022-12-20T00:38:49.189Z,15.74
2022-12-20T00:41:18.128Z,15.74
2022-12-20T00:43:46.040Z,15.70
2022-12-20T00:46:14.479Z,15.57
2022-12-20T00:48:42.394Z,15.41
2022-12-20T00:51:11.219Z,15.19
2022-12-20T00:53:39.495Z,15.02
2022-12-20T00:56:09.232Z,14.90
2022-12-20T00:58:38.287Z,14.81
2022-12-20T01:01:07.064Z,14.74
2022-12-20T01:03:35.158Z,14.66
2022-12-20T01:06:03.348Z,14.52
2022-12-20T01:08:31.816Z,14.32
2022-12-20T01:11:00.905Z,14.09
2022-12-20T01:13:30.434Z,13.88
2022-12-20T01:15:58.411Z,13.73
2022-12-20T01:18:26.545Z,13.59
2022-12-20T01:21:02.232Z,13.48
2022-12-20T01:23:30.446Z,13.40
2022-12-20T01:25:59.824Z,13.34
2022-12-20T01:28:27.852Z,13.28
2022-12-20T01:30:57.123Z,13.25
2022-12-20T01:33:25.087Z,13.24
2022-12-20T01:35:57.523Z,13.24
2022-12-20T01:38:25.440Z,13.31
2022-12-20T01:40:53.504Z,13.35
2022-12-20T01:43:21.602Z,13.38
2022-12-20T01:45:49.636Z,13.38
2022-12-20T01:48:22.770Z,13.36
2022-12-20T01:50:50.663Z,13.34
2022-12-20T01:53:18.724Z,13.37
2022-12-20T01:55:47.917Z,13.46
2022-12-20T01:58:15.927Z,13.53
2022-12-20T02:00:43.896Z,13.62
2022-12-20T02:03:14.034Z,13.74
2022-12-20T02:05:44.413Z,13.84
2022-12-20T02:08:13.193Z,13.90
2022-12-20T02:10:47.952Z,13.98
2022-12-20T02:13:21.054Z,13.99
2022-12-20T02:15:51.095Z,14.05
2022-12-20T02:18:23.075Z,14.02
2022-12-20T02:21:02.444Z,14.00
2022-12-20T02:24:04.905Z,14.03
2022-12-20T02:26:56.004Z,14.00
2022-12-20T02:29:26.380Z,14.01
2022-12-20T02:31:59.313Z,14.07
2022-12-20T02:34:27.390Z,14.06
2022-12-20T02:36:59.206Z,14.05
2022-12-20T02:39:27.538Z,14.02
2022-12-20T02:41:56.327Z,13.99
2022-12-20T02:44:43.518Z,13.91
2022-12-20T02:47:15.157Z,13.86
2022-12-20T02:49:43.110Z,13.84
2022-12-20T02:52:11.034Z,13.77
2022-12-20T02:54:38.908Z,13.74
2022-12-20T02:57:09.396Z,13.66
2022-12-20T02:59:38.688Z,13.64
2022-12-20T03:02:06.822Z,13.58
2022-12-20T03:04:36.486Z,13.54
2022-12-20T03:07:05.867Z,13.47
2022-12-20T03:09:34.830Z,13.39
2022-12-20T03:12:02.691Z,13.34
2022-12-20T03:14:30.629Z,13.32
2022-12-20T03:16:58.730Z,13.28
2022-12-20T03:19:26.688Z,13.27
2022-12-20T03:21:55.998Z,13.26
2022-12-20T03:24:23.939Z,13.22
2022-12-20T03:26:51.809Z,13.22
2022-12-20T03:29:19.717Z,13.23
2022-12-20T03:31:47.604Z,13.22
2022-12-20T03:34:15.503Z,13.23
2022-12-20T03:36:43.459Z,13.24
2022-12-20T03:39:13.177Z,13.24
2022-12-20T03:41:41.074Z,13.20
2022-12-20T03:44:09.047Z,13.15
2022-12-20T03:46:37.124Z,13.14
2022-12-20T03:49:05.009Z,13.11
2022-12-20T03:51:32.916Z,13.08
2022-12-20T03:54:00.824Z,13.05
2022-12-20T03:56:30.077Z,12.99
2022-12-20T03:58:57.982Z,12.93
2022-12-20T04:01:26.977Z,12.84
2022-12-20T04:03:55.594Z,12.78
2022-12-20T04:06:23.949Z,12.75
2022-12-20T04:08:51.870Z,12.72
2022-12-20T04:11:19.787Z,12.73
2022-12-20T04:13:49.752Z,12.71
2022-12-20T04:16:18.927Z,12.66
2022-12-20T04:18:46.844Z,12.62
2022-12-20T04:21:14.893Z,12.59
2022-12-20T04:23:43.441Z,12.51
2022-12-20T04:26:13.338Z,12.46
2022-12-20T04:28:41.328Z,12.42
2022-12-20T04:31:11.060Z,12.41
2022-12-20T04:33:39.086Z,12.35
2022-12-20T04:36:07.318Z,12.34
2022-12-20T04:38:35.226Z,12.32
2022-12-20T04:41:03.160Z,12.28
2022-12-20T04:43:31.037Z,12.26
2022-12-20T04:45:59.086Z,12.25
2022-12-20T04:51:16.970Z,12.36
2022-12-20T04:53:49.859Z,12.45
2022-12-20T04:56:18.701Z,12.57
2022-12-20T04:58:46.895Z,12.66
2022-12-20T05:01:14.832Z,12.77
2022-12-20T05:03:44.269Z,12.87
2022-12-20T05:06:12.213Z,12.97
2022-12-20T05:08:40.127Z,13.07
2022-12-20T05:11:08.009Z,13.10
2022-12-20T05:13:36.074Z,13.06
2022-12-20T05:16:04.170Z,13.04
2022-12-20T05:18:32.130Z,13.01
2022-12-20T05:21:19.585Z,12.95
2022-12-20T05:24:04.655Z,12.88
2022-12-20T05:26:33.828Z,12.83
2022-12-20T05:29:01.742Z,12.84
2022-12-20T05:31:29.630Z,12.71
2022-12-20T05:33:57.604Z,12.89
2022-12-20T05:36:27.129Z,12.98
2022-12-20T05:39:00.105Z,13.06
2022-12-20T05:41:31.729Z,13.12
2022-12-20T05:43:59.704Z,13.15
2022-12-20T05:46:27.669Z,13.22
2022-12-20T05:48:55.862Z,13.25
2022-12-20T05:51:24.052Z,13.26
2022-12-20T05:53:53.343Z,13.26
2022-12-20T05:56:21.258Z,13.28
2022-12-20T05:58:49.169Z,13.29
2022-12-20T06:01:17.093Z,13.27
2022-12-20T06:03:45.827Z,13.21
2022-12-20T06:06:14.843Z,13.23
2022-12-20T06:08:43.410Z,13.23
2022-12-20T06:11:12.670Z,13.25
2022-12-20T06:13:40.576Z,13.28
2022-12-20T06:16:08.765Z,13.27
2022-12-20T06:18:36.663Z,13.25
2022-12-20T06:21:04.982Z,13.26
2022-12-20T06:23:34.202Z,13.23
2022-12-20T06:26:02.127Z,13.20
2022-12-20T06:28:31.462Z,13.15
2022-12-20T06:30:59.420Z,13.08
2022-12-20T06:33:27.423Z,13.02
2022-12-20T06:35:55.305Z,12.96
2022-12-20T06:38:23.236Z,12.93
2022-12-20T06:40:51.145Z,12.87
2022-12-20T06:43:19.011Z,12.81
2022-12-20T06:45:48.353Z,12.79
2022-12-20T06:48:16.236Z,12.79
2022-12-20T06:50:44.133Z,12.81
2022-12-20T06:53:12.078Z,12.82
2022-12-20T06:55:40.572Z,12.82
2022-12-20T06:58:08.517Z,12.81
2022-12-20T07:00:36.608Z,12.79
2022-12-20T07:03:06.089Z,12.80
2022-12-20T07:05:34.138Z,12.77
2022-12-20T07:08:05.492Z,12.73
2022-12-20T07:10:34.592Z,12.70
2022-12-20T07:13:02.433Z,12.66
2022-12-20T07:15:30.492Z,12.62
2022-12-20T07:17:58.402Z,12.59
2022-12-20T07:20:27.736Z,12.58
2022-12-20T07:22:55.726Z,12.53
2022-12-20T07:25:24.748Z,12.55
2022-12-20T07:27:52.744Z,12.56
2022-12-20T07:30:21.398Z,12.53
2022-12-20T07:32:49.623Z,12.50
2022-12-20T07:35:18.459Z,12.48
2022-12-20T07:37:47.724Z,12.46
2022-12-20T07:40:16.413Z,12.47
2022-12-20T07:42:48.510Z,12.45
2022-12-20T07:45:17.142Z,12.48
2022-12-20T07:47:45.052Z,12.49
2022-12-20T07:50:13.101Z,12.49
2022-12-20T07:52:41.316Z,12.46
2022-12-20T07:55:11.417Z,12.46
2022-12-20T07:57:41.969Z,12.36
2022-12-20T08:00:10.867Z,12.42
2022-12-20T08:02:40.363Z,12.42
2022-12-20T08:05:09.314Z,12.48
2022-12-20T08:07:37.240Z,12.46
2022-12-20T08:10:06.249Z,12.46
2022-12-20T08:12:35.565Z,12.46
2022-12-20T08:15:03.625Z,12.31
2022-12-20T08:17:31.499Z,12.44
2022-12-20T08:20:00.630Z,12.40
2022-12-20T08:22:28.632Z,12.38
2022-12-20T08:24:56.573Z,12.37
2022-12-20T08:27:24.473Z,12.37
2022-12-20T08:29:53.743Z,12.38
2022-12-20T08:32:21.638Z,12.42
2022-12-20T08:34:49.573Z,12.41
2022-12-20T08:37:17.720Z,12.46
2022-12-20T08:39:45.659Z,12.45
2022-12-20T08:42:13.798Z,12.51
2022-12-20T08:44:41.704Z,12.51
2022-12-20T08:47:11.523Z,12.52
2022-12-20T08:49:45.677Z,12.51
2022-12-20T08:52:15.456Z,12.46
2022-12-20T08:54:43.476Z,12.41
2022-12-20T08:57:11.381Z,12.37
2022-12-20T08:59:39.339Z,12.36
2022-12-20T09:02:08.011Z,12.39
2022-12-20T09:04:37.504Z,12.48
2022-12-20T09:07:05.567Z,12.59
2022-12-20T09:09:33.523Z,12.67
2022-12-20T09:12:01.441Z,12.75
2022-12-20T09:14:29.751Z,12.82
2022-12-20T09:16:58.023Z,12.87
2022-12-20T09:19:26.384Z,12.89
2022-12-20T09:21:56.741Z,12.87
2022-12-20T09:24:25.238Z,12.87
2022-12-20T09:26:53.589Z,12.88
2022-12-20T09:29:28.212Z,12.90
2022-12-20T09:31:56.871Z,12.92
2022-12-20T09:34:25.251Z,12.92
2022-12-20T09:36:55.637Z,12.94
2022-12-20T09:39:24.263Z,12.99
2022-12-20T09:41:52.182Z,13.00
2022-12-20T09:44:21.530Z,13.05
2022-12-20T09:46:54.923Z,13.09
2022-12-20T09:49:22.877Z,13.09
2022-12-20T09:52:14.199Z,13.12
2022-12-20T09:54:45.720Z,13.17
2022-12-20T09:57:18.011Z,13.27
2022-12-20T09:59:49.522Z,13.38
2022-12-20T10:05:14.684Z,13.77
2022-12-20T10:07:48.061Z,13.90
2022-12-20T10:10:27.197Z,13.94
2022-12-20T10:12:57.984Z,13.95
2022-12-20T10:15:28.155Z,13.95
2022-12-20T10:18:02.185Z,13.96
2022-12-20T10:20:36.160Z,14.00
2022-12-20T10:23:06.512Z,14.02
2022-12-20T10:25:34.823Z,14.02
2022-12-20T10:28:04.099Z,14.09
2022-12-20T10:30:33.451Z,14.21
2022-12-20T10:33:01.389Z,14.43
2022-12-20T10:35:31.427Z,14.71
2022-12-20T10:38:09.367Z,14.96
2022-12-20T10:41:18.606Z,15.05
2022-12-20T10:43:27.837Z,14.91
2022-12-20T10:45:57.821Z,15.00
2022-12-20T10:48:29.180Z,15.16
2022-12-20T10:50:57.815Z,15.33
2022-12-20T10:53:27.234Z,15.57
2022-12-20T10:56:13.801Z,15.77
2022-12-20T10:58:42.310Z,15.98
2022-12-20T11:01:14.934Z,16.13
2022-12-20T11:03:51.930Z,16.30
2022-12-20T11:06:20.402Z,16.42
2022-12-20T11:08:57.076Z,16.56
2022-12-20T11:11:35.043Z,16.55
2022-12-20T11:14:15.562Z,16.80
2022-12-20T11:16:43.530Z,16.95
2022-12-20T11:19:47.844Z,16.95
2022-12-20T11:22:22.877Z,17.20
2022-12-20T11:24:54.383Z,17.35
2022-12-20T11:27:27.348Z,17.48
2022-12-20T11:30:11.193Z,17.63
2022-12-20T11:32:55.888Z,17.79
2022-12-20T11:35:25.588Z,18.07
2022-12-20T11:37:57.262Z,18.30
2022-12-20T11:40:30.781Z,18.52
2022-12-20T11:43:18.131Z,18.21
2022-12-20T11:45:50.785Z,17.80
2022-12-20T11:48:36.599Z,17.66
2022-12-20T11:51:07.541Z,17.77
2022-12-20T11:53:39.170Z,17.77
2022-12-20T11:56:10.078Z,17.67
2022-12-20T11:58:47.053Z,17.56
2022-12-20T12:01:16.163Z,17.49
2022-12-20T12:03:46.255Z,17.75
2022-12-20T12:06:20.971Z,17.95
2022-12-20T12:08:51.288Z,17.82
2022-12-20T12:12:04.093Z,17.72
2022-12-20T12:14:11.314Z,17.63
2022-12-20T12:16:41.195Z,17.53
2022-12-20T12:19:10.315Z,17.42
2022-12-20T12:21:39.792Z,17.29
2022-12-20T12:24:09.578Z,17.29
2022-12-20T12:26:39.515Z,17.32
2022-12-20T12:29:13.028Z,17.51
2022-12-20T12:31:42.582Z,17.63
2022-12-20T12:34:14.875Z,17.83
2022-12-20T12:37:18.277Z,17.96
2022-12-20T12:39:54.604Z,17.94
2022-12-20T12:42:34.607Z,17.92
2022-12-20T12:45:04.816Z,17.94
2022-12-20T12:47:36.679Z,17.81
2022-12-20T12:50:04.848Z,17.67
2022-12-20T12:52:42.854Z,17.84
2022-12-20T12:55:36.687Z,18.00
2022-12-20T12:58:31.442Z,17.98
2022-12-20T13:01:01.231Z,18.00
2022-12-20T13:03:47.602Z,17.94
2022-12-20T13:06:44.656Z,17.82
2022-12-20T13:09:20.239Z,17.49
2022-12-20T13:11:52.308Z,17.31
2022-12-20T13:14:50.976Z,17.62
2022-12-20T13:17:49.243Z,18.17
2022-12-20T13:20:19.705Z,18.07
2022-12-20T13:23:17.417Z,17.82
2022-12-20T13:25:46.585Z,18.01
2022-12-20T13:28:45.852Z,18.31
2022-12-20T13:31:33.697Z,18.63
2022-12-20T13:34:04.119Z,18.77
2022-12-20T13:36:39.253Z,18.92
2022-12-20T13:39:33.310Z,19.01
2022-12-20T13:42:35.521Z,19.01
2022-12-20T13:45:04.030Z,19.10
2022-12-20T13:47:40.167Z,19.11
2022-12-20T13:50:33.140Z,19.28
2022-12-20T13:53:01.243Z,19.34
2022-12-20T13:55:37.395Z,18.92
2022-12-20T13:58:11.854Z,18.51
2022-12-20T14:00:39.871Z,18.23
2022-12-20T14:03:20.571Z,17.98
2022-12-20T14:05:50.107Z,17.80
2022-12-20T14:08:19.136Z,17.59
2022-12-20T14:10:47.026Z,17.40
2022-12-20T14:13:20.615Z,17.23
2022-12-20T14:15:48.693Z,17.08
2022-12-20T14:18:21.099Z,16.98
2022-12-20T14:20:51.447Z,16.88
2022-12-20T14:23:20.810Z,16.85
2022-12-20T14:25:49.481Z,16.81
2022-12-20T14:28:27.581Z,16.93
2022-12-20T14:30:56.352Z,17.30
2022-12-20T14:33:28.902Z,17.30
2022-12-20T14:35:59.969Z,17.28
2022-12-20T14:38:30.787Z,17.40
2022-12-20T14:40:58.843Z,17.45
2022-12-20T14:43:29.084Z,17.56
2022-12-20T14:46:15.165Z,17.76
2022-12-20T14:48:43.653Z,17.93
2022-12-20T14:51:12.981Z,17.99
2022-12-20T14:53:40.951Z,18.01
2022-12-20T14:56:15.390Z,18.34
2022-12-20T14:58:43.303Z,18.63
2022-12-20T15:01:21.937Z,18.38
2022-12-20T15:03:51.688Z,18.08
2022-12-20T15:06:34.794Z,17.76
2022-12-20T15:09:02.764Z,17.46
2022-12-20T15:11:31.040Z,17.26
2022-12-20T15:13:59.264Z,16.98
2022-12-20T15:16:29.187Z,16.89
2022-12-20T15:18:58.465Z,16.70
2022-12-20T15:21:30.326Z,16.53
2022-12-20T15:24:00.995Z,16.38
2022-12-20T15:26:29.132Z,16.22
2022-12-20T15:28:57.639Z,16.05
2022-12-20T15:31:32.483Z,15.91
2022-12-20T15:34:02.521Z,15.73
2022-12-20T15:36:30.869Z,15.61
2022-12-20T15:39:12.656Z,15.48
2022-12-20T15:41:42.760Z,15.33
2022-12-20T15:44:13.668Z,15.23
2022-12-20T15:46:41.656Z,15.14
2022-12-20T15:49:14.183Z,15.06
2022-12-20T15:51:44.245Z,15.00
2022-12-20T15:54:19.814Z,14.94
2022-12-20T15:56:47.727Z,14.86
2022-12-20T15:59:48.882Z,14.76
2022-12-20T16:02:03.858Z,14.66
2022-12-20T16:04:31.863Z,14.58
2022-12-20T16:06:59.738Z,14.50
2022-12-20T16:09:29.040Z,14.42
2022-12-20T16:11:57.179Z,14.35
2022-12-20T16:14:27.339Z,14.29
2022-12-20T16:16:55.249Z,14.24
2022-12-20T16:19:23.181Z,14.22
2022-12-20T16:21:51.965Z,14.18
2022-12-20T16:24:22.011Z,14.15
2022-12-20T16:26:51.643Z,14.11
2022-12-20T16:29:19.560Z,14.06
2022-12-20T16:31:47.545Z,14.00
2022-12-20T16:34:16.385Z,13.93
2022-12-20T16:36:44.297Z,13.82
2022-12-20T16:39:12.206Z,13.75
2022-12-20T16:41:41.002Z,13.65
2022-12-20T16:44:14.202Z,13.59
2022-12-20T16:46:42.220Z,13.54
2022-12-20T16:49:14.999Z,13.47
2022-12-20T16:51:47.743Z,13.44
2022-12-20T16:54:19.771Z,13.39
2022-12-20T16:56:48.525Z,13.32
2022-12-20T16:59:20.600Z,13.20
2022-12-20T17:01:49.941Z,13.07
2022-12-20T17:04:18.635Z,13.00
2022-12-20T17:06:46.853Z,12.91
2022-12-20T17:12:01.723Z,12.70
2022-12-20T17:14:31.076Z,12.64
2022-12-20T17:16:59.893Z,12.53
2022-12-20T17:19:27.897Z,12.49
2022-12-20T17:24:41.501Z,12.35
2022-12-20T17:27:10.542Z,12.31
2022-12-20T17:29:40.968Z,12.26
2022-12-20T17:32:18.372Z,12.18
2022-12-20T17:34:46.482Z,12.10
2022-12-20T17:37:14.447Z,12.04
2022-12-20T17:39:42.381Z,11.96
2022-12-20T17:42:10.705Z,11.91
2022-12-20T17:44:40.511Z,11.88
2022-12-20T17:47:08.388Z,11.82
2022-12-20T17:49:36.271Z,11.76
2022-12-20T17:52:04.477Z,11.75
2022-12-20T17:54:39.736Z,11.73
2022-12-20T17:57:11.293Z,11.68
2022-12-20T17:59:40.589Z,11.65
2022-12-20T18:02:22.297Z,11.61
2022-12-20T18:04:50.804Z,11.59
2022-12-20T18:07:18.751Z,11.59
2022-12-20T18:09:48.035Z,11.59
2022-12-20T18:12:15.982Z,11.61
2022-12-20T18:14:45.705Z,11.64
2022-12-20T18:17:13.713Z,11.66
2022-12-20T18:19:44.355Z,11.65
2022-12-20T18:22:12.822Z,11.67
2022-12-20T18:24:40.784Z,11.66
2022-12-20T18:27:08.836Z,11.64
2022-12-20T18:29:36.739Z,11.62
2022-12-20T18:32:06.776Z,11.60
2022-12-20T18:34:34.836Z,11.60
2022-12-20T18:37:05.497Z,11.60
2022-12-20T18:39:33.603Z,11.59
2022-12-20T18:42:01.537Z,11.60
2022-12-20T18:44:29.615Z,11.56
2022-12-20T18:46:57.598Z,11.58
2022-12-20T18:49:27.519Z,11.59
2022-12-20T18:51:55.382Z,11.62
2022-12-20T18:54:23.305Z,11.60
2022-12-20T18:56:51.378Z,11.55
2022-12-20T18:59:21.256Z,11.51
2022-12-20T19:01:49.382Z,11.45
2022-12-20T19:04:24.095Z,11.44
2022-12-20T19:06:54.024Z,11.40
2022-12-20T19:09:22.041Z,11.37
2022-12-20T19:11:56.348Z,11.36
2022-12-20T19:14:24.757Z,11.32
2022-12-20T19:16:52.956Z,11.32
2022-12-20T19:19:21.303Z,11.31
2022-12-20T19:21:49.240Z,11.34
2022-12-20T19:24:18.528Z,11.35
2022-12-20T19:26:46.417Z,11.36
2022-12-20T19:29:14.469Z,11.38
2022-12-20T19:31:42.470Z,11.40
2022-12-20T19:34:12.516Z,11.42
2022-12-20T19:36:41.346Z,11.34
2022-12-20T19:39:13.776Z,11.39
2022-12-20T19:41:43.118Z,11.40
2022-12-20T19:44:11.029Z,11.39
2022-12-20T19:46:39.241Z,11.42
2022-12-20T19:49:07.271Z,11.46
2022-12-20T19:51:35.143Z,11.51
2022-12-20T19:54:03.103Z,11.58
2022-12-20T19:56:32.416Z,11.61
2022-12-20T19:59:01.700Z,11.70
2022-12-20T20:01:29.867Z,11.73
2022-12-20T20:03:58.882Z,11.76
2022-12-20T20:06:27.005Z,11.81
2022-12-20T20:08:57.578Z,11.84
2022-12-20T20:11:25.830Z,11.91
2022-12-20T20:13:53.781Z,11.94
2022-12-20T20:16:23.864Z,11.96
2022-12-20T20:18:51.866Z,11.99
2022-12-20T20:21:22.409Z,12.01
2022-12-20T20:23:50.638Z,12.02
2022-12-20T20:26:19.863Z,12.04
2022-12-20T20:28:47.779Z,12.07
2022-12-20T20:31:16.966Z,12.07
2022-12-20T20:33:46.794Z,12.10
2022-12-20T20:36:15.532Z,12.11
2022-12-20T20:38:43.445Z,12.13
2022-12-20T20:41:11.428Z,12.13
2022-12-20T20:43:39.336Z,12.17
2022-12-20T20:46:08.147Z,12.16
2022-12-20T20:48:36.207Z,12.24
2022-12-20T20:51:05.801Z,12.27
2022-12-20T20:53:34.501Z,12.32
2022-12-20T20:56:02.717Z,12.34
2022-12-20T20:58:30.658Z,12.34
2022-12-20T21:00:58.917Z,12.33
2022-12-20T21:03:27.352Z,12.34
2022-12-20T21:08:44.746Z,12.35
2022-12-20T21:11:13.195Z,12.36
2022-12-20T21:13:41.308Z,12.39
2022-12-20T21:16:09.835Z,12.39
2022-12-20T21:18:37.823Z,12.40
2022-12-20T21:21:09.457Z,12.42
2022-12-20T21:23:37.485Z,12.45
2022-12-20T21:26:07.552Z,12.39
2022-12-20T21:28:35.692Z,12.51
2022-12-20T21:31:05.533Z,12.48
2022-12-20T21:33:33.680Z,12.45
2022-12-20T21:36:02.283Z,12.63
2022-12-20T21:38:30.254Z,12.68
2022-12-20T21:41:02.033Z,12.74
2022-12-20T21:43:31.348Z,12.77
2022-12-20T21:45:59.260Z,12.81
2022-12-20T21:48:27.376Z,12.83
2022-12-20T21:51:02.042Z,12.85
2022-12-20T21:53:30.110Z,12.85
2022-12-20T21:55:58.315Z,12.86
2022-12-20T21:58:26.478Z,12.89
2022-12-20T22:00:56.026Z,12.89
2022-12-20T22:03:24.479Z,12.89
2022-12-20T22:05:53.988Z,12.92
2022-12-20T22:08:22.173Z,12.93
2022-12-20T22:10:50.840Z,12.96
2022-12-20T22:13:18.811Z,12.99
2022-12-20T22:15:46.693Z,13.01
2022-12-20T22:18:15.947Z,13.01
2022-12-20T22:20:45.301Z,13.03
2022-12-20T22:23:13.224Z,13.05
2022-12-20T22:25:41.151Z,13.06
2022-12-20T22:28:09.123Z,13.06
2022-12-20T22:30:40.725Z,13.07
2022-12-20T22:33:08.652Z,13.08
2022-12-20T22:35:38.073Z,13.06
2022-12-20T22:38:06.394Z,13.15
2022-12-20T22:40:34.281Z,13.17
2022-12-20T22:43:02.218Z,13.22
2022-12-20T22:45:30.328Z,13.23
2022-12-20T22:47:58.295Z,13.32
2022-12-20T22:50:26.295Z,13.35
2022-12-20T22:52:55.554Z,13.37
2022-12-20T22:55:23.531Z,13.40
2022-12-20T22:57:51.429Z,13.42
2022-12-20T23:00:19.790Z,13.42
2022-12-20T23:02:47.878Z,13.42
2022-12-20T23:05:15.926Z,13.43
2022-12-20T23:07:43.821Z,13.40
2022-12-20T23:10:34.559Z,13.38
2022-12-20T23:13:20.086Z,13.33
2022-12-20T23:15:48.345Z,13.26
2022-12-20T23:18:16.272Z,13.23
2022-12-20T23:21:01.460Z,13.19
2022-12-20T23:23:29.329Z,13.13
2022-12-20T23:26:09.238Z,13.10
2022-12-20T23:28:37.164Z,13.03
2022-12-20T23:31:05.578Z,13.04
2022-12-20T23:33:33.607Z,13.00
2022-12-20T23:36:01.793Z,13.03
2022-12-20T23:38:32.281Z,13.03
2022-12-20T23:41:01.602Z,13.04
2022-12-20T23:43:30.685Z,13.08
2022-12-20T23:46:03.850Z,13.14
2022-12-20T23:48:32.183Z,13.19
2022-12-20T23:51:00.150Z,13.23
2022-12-20T23:53:28.043Z,13.29
2022-12-20T23:56:01.680Z,13.24
2022-12-20T23:58:29.605Z,13.40
